Time;durP1;ratioP1;P1;durP2;ratioP2;P2;SDS_P1;SDS_P2;PMS_P1;PMS_P2;Temp;Humidity;BMP_temperature;BMP_pressure;BME280_temperature;BME280_humidity;BME280_pressure;Samples;Min_cycle;Max_cycle;Signal;HPM_P1;HPM_P2
2021/11/28 00:00:46;;;;;;;0.43;0.43;;;;;;;;;;4983390;28;20033;-73
2021/11/28 00:03:13;;;;;;;0.40;0.40;;;;;;;;;;4978651;28;20045;-73
2021/11/28 00:05:39;;;;;;;3.40;1.70;;;;;;;;;;4976092;28;20034;-73
2021/11/28 00:15:54;;;;;;;0.63;0.57;;;;;;;;;;4984724;28;20463;-73
2021/11/28 00:18:20;;;;;;;0.10;0.10;;;;;;;;;;4980558;28;20026;-73
2021/11/28 00:20:46;;;;;;;2.45;1.10;;;;;;;;;;4976217;28;20060;-73
2021/11/28 00:23:12;;;;;;;2.83;1.27;;;;;;;;;;4976272;28;20070;-73
2021/11/28 00:25:38;;;;;;;0.20;0.20;;;;;;;;;;4973686;28;20041;-72
2021/11/28 00:28:04;;;;;;;2.33;2.13;;;;;;;;;;4978494;28;20031;-73
2021/11/28 00:30:31;;;;;;;0.47;0.47;;;;;;;;;;4971650;28;20027;-72
2021/11/28 00:33:01;;;;;;;1.35;1.02;;;;;;;;;;4969585;28;20825;-73
2021/11/28 00:35:27;;;;;;;1.02;0.98;;;;;;;;;;4972268;28;20174;-73
2021/11/28 00:37:53;;;;;;;1.52;1.20;;;;;;;;;;4968513;28;20035;-73
2021/11/28 00:40:19;;;;;;;1.13;1.05;;;;;;;;;;4973971;28;20023;-73
2021/11/28 00:42:45;;;;;;;3.55;0.95;;;;;;;;;;4967555;28;20023;-74
2021/11/28 00:45:11;;;;;;;1.55;0.95;;;;;;;;;;4971358;28;20035;-73
2021/11/28 00:47:37;;;;;;;1.58;1.23;;;;;;;;;;4968066;28;20038;-73
2021/11/28 00:50:24;;;;;;;1.30;1.20;;;;;;;;;;4967812;28;20118;-73
2021/11/28 00:52:51;;;;;;;1.88;1.20;;;;;;;;;;4972663;28;20393;-73
2021/11/28 00:55:17;;;;;;;0.10;0.10;;;;;;;;;;4964718;28;20100;-73
2021/11/28 00:57:43;;;;;;;0.80;0.80;;;;;;;;;;4973906;28;20046;-73
2021/11/28 01:00:10;;;;;;;1.70;1.58;;;;;;;;;;4963382;28;20031;-73
2021/11/28 01:02:36;;;;;;;1.65;1.55;;;;;;;;;;4970369;28;20026;-73
2021/11/28 01:05:03;;;;;;;0.77;0.77;;;;;;;;;;4979441;28;20030;-73
2021/11/28 01:07:30;;;;;;;0.70;0.65;;;;;;;;;;4968795;28;20092;-73
2021/11/28 01:09:56;;;;;;;1.38;0.70;;;;;;;;;;4979263;28;20034;-73
2021/11/28 01:12:23;;;;;;;1.38;1.20;;;;;;;;;;4984823;28;20050;-73
2021/11/28 01:14:49;;;;;;;1.00;1.00;;;;;;;;;;4979035;28;20081;-73
2021/11/28 01:17:15;;;;;;;3.90;1.17;;;;;;;;;;4975204;28;20121;-73
2021/11/28 01:19:41;;;;;;;0.40;0.40;;;;;;;;;;4973199;28;20122;-73
2021/11/28 01:22:09;;;;;;;0.82;0.82;;;;;;;;;;4969271;28;20030;-72
2021/11/28 01:24:36;;;;;;;0.40;0.40;;;;;;;;;;4974280;28;20097;-73
2021/11/28 01:27:04;;;;;;;2.15;0.85;;;;;;;;;;4974266;28;20069;-73
2021/11/28 01:29:30;;;;;;;3.35;1.08;;;;;;;;;;4968564;28;20026;-73
2021/11/28 01:31:58;;;;;;;1.27;0.77;;;;;;;;;;4970826;28;20528;-73
2021/11/28 01:34:24;;;;;;;0.75;0.52;;;;;;;;;;4971230;28;20397;-72
2021/11/28 01:36:50;;;;;;;2.60;1.88;;;;;;;;;;4967444;28;20022;-72
2021/11/28 01:39:16;;;;;;;1.45;1.35;;;;;;;;;;4966741;28;20441;-73
2021/11/28 01:41:42;;;;;;;0.20;0.20;;;;;;;;;;4964052;28;20039;-73
2021/11/28 01:44:08;;;;;;;0.50;0.50;;;;;;;;;;4966164;28;20041;-74
2021/11/28 01:46:34;;;;;;;0.20;0.20;;;;;;;;;;4975790;28;20026;-73
2021/11/28 01:49:00;;;;;;;0.50;0.50;;;;;;;;;;4970630;28;20615;-73
2021/11/28 01:51:26;;;;;;;3.25;1.27;;;;;;;;;;4974275;28;20029;-73
2021/11/28 01:53:53;;;;;;;0.52;0.45;;;;;;;;;;4968520;28;20433;-73
2021/11/28 01:56:19;;;;;;;1.58;1.02;;;;;;;;;;4971792;28;20062;-73
2021/11/28 01:58:45;;;;;;;1.52;1.42;;;;;;;;;;4978255;28;20054;-73
2021/11/28 02:01:13;;;;;;;8.98;1.45;;;;;;;;;;4962983;28;20077;-73
2021/11/28 02:03:40;;;;;;;0.73;0.73;;;;;;;;;;4961050;28;20035;-72
2021/11/28 02:06:08;;;;;;;0.20;0.20;;;;;;;;;;4975163;28;20519;-73
2021/11/28 02:08:34;;;;;;;1.30;1.17;;;;;;;;;;4973916;28;20448;-73
2021/11/28 02:11:00;;;;;;;0.75;0.73;;;;;;;;;;4987508;28;20463;-73
2021/11/28 02:13:26;;;;;;;0.30;0.22;;;;;;;;;;4972720;28;20054;-74
2021/11/28 02:15:52;;;;;;;0.38;0.38;;;;;;;;;;4983193;28;20414;-72
2021/11/28 02:18:18;;;;;;;1.13;0.38;;;;;;;;;;4973302;28;20034;-73
2021/11/28 02:20:45;;;;;;;0.32;0.32;;;;;;;;;;4976264;28;20141;-73
2021/11/28 02:23:12;;;;;;;0.17;0.17;;;;;;;;;;4973834;28;20058;-73
2021/11/28 02:25:38;;;;;;;0.32;0.32;;;;;;;;;;4984751;28;20034;-73
2021/11/28 02:28:04;;;;;;;4.55;0.63;;;;;;;;;;4958716;28;20431;-73
2021/11/28 02:30:30;;;;;;;0.57;0.57;;;;;;;;;;4972252;28;20027;-72
2021/11/28 02:32:57;;;;;;;0.10;0.10;;;;;;;;;;4973594;28;20386;-73
2021/11/28 02:35:23;;;;;;;0.90;0.73;;;;;;;;;;4976524;28;20061;-73
2021/11/28 02:37:50;;;;;;;0.30;0.30;;;;;;;;;;4979228;28;20038;-73
2021/11/28 02:40:18;;;;;;;0.10;0.10;;;;;;;;;;4979399;28;20490;-73
2021/11/28 02:42:44;;;;;;;0.10;0.10;;;;;;;;;;4974675;28;20033;-73
2021/11/28 02:45:10;;;;;;;0.63;0.63;;;;;;;;;;4969557;28;20066;-73
2021/11/28 02:47:36;;;;;;;0.90;0.82;;;;;;;;;;4974740;28;20540;-73
2021/11/28 02:50:03;;;;;;;0.38;0.38;;;;;;;;;;4980598;28;20038;-73
2021/11/28 02:52:29;;;;;;;0.55;0.55;;;;;;;;;;4970783;28;20081;-72
2021/11/28 02:54:55;;;;;;;0.77;0.77;;;;;;;;;;4972634;28;20037;-73
2021/11/28 02:57:21;;;;;;;0.52;0.52;;;;;;;;;;4974574;28;20035;-73
2021/11/28 02:59:47;;;;;;;0.88;0.65;;;;;;;;;;4966679;28;20027;-73
2021/11/28 03:02:13;;;;;;;1.02;0.70;;;;;;;;;;4969973;28;20081;-72
2021/11/28 03:04:39;;;;;;;0.40;0.40;;;;;;;;;;4972657;28;20429;-73
2021/11/28 03:07:05;;;;;;;1.27;1.08;;;;;;;;;;4980301;28;20067;-72
2021/11/28 03:09:31;;;;;;;1.08;0.70;;;;;;;;;;4976029;28;20503;-73
2021/11/28 03:11:57;;;;;;;0.43;0.43;;;;;;;;;;4984574;28;20051;-73
2021/11/28 03:14:23;;;;;;;0.80;0.80;;;;;;;;;;4974353;28;20061;-73
2021/11/28 03:16:49;;;;;;;0.52;0.50;;;;;;;;;;4980084;28;20058;-73
2021/11/28 03:19:15;;;;;;;0.77;0.60;;;;;;;;;;4972234;28;20027;-73
2021/11/28 03:21:41;;;;;;;1.40;0.40;;;;;;;;;;4970867;28;20023;-73
2021/11/28 03:24:08;;;;;;;0.98;0.98;;;;;;;;;;4975560;28;20030;-73
2021/11/28 03:26:36;;;;;;;0.45;0.45;;;;;;;;;;4973539;28;20035;-72
2021/11/28 03:29:04;;;;;;;0.40;0.40;;;;;;;;;;4972691;28;20441;-73
2021/11/28 03:31:31;;;;;;;2.58;1.45;;;;;;;;;;4977048;28;20101;-73
2021/11/28 03:33:57;;;;;;;0.20;0.20;;;;;;;;;;4968795;28;20062;-73
2021/11/28 03:36:25;;;;;;;0.45;0.45;;;;;;;;;;4973047;28;20081;-73
2021/11/28 03:38:52;;;;;;;0.52;0.52;;;;;;;;;;4971514;28;20031;-73
2021/11/28 03:41:19;;;;;;;0.85;0.85;;;;;;;;;;4971489;28;20031;-72
2021/11/28 03:43:46;;;;;;;0.32;0.32;;;;;;;;;;4981957;28;20504;-73
2021/11/28 03:46:12;;;;;;;1.52;1.42;;;;;;;;;;4971587;28;20031;-73
2021/11/28 03:48:38;;;;;;;0.85;0.70;;;;;;;;;;4970175;28;20592;-73
2021/11/28 03:51:05;;;;;;;0.70;0.70;;;;;;;;;;4974083;28;20030;-72
2021/11/28 03:53:31;;;;;;;0.10;0.10;;;;;;;;;;4976565;28;20037;-73
2021/11/28 03:56:01;;;;;;;0.30;0.30;;;;;;;;;;4971714;28;20026;-73
2021/11/28 03:58:28;;;;;;;0.85;0.77;;;;;;;;;;4978084;28;20255;-73
2021/11/28 04:00:54;;;;;;;1.08;0.75;;;;;;;;;;4977611;28;20121;-73
2021/11/28 04:03:20;;;;;;;1.25;0.82;;;;;;;;;;4970333;28;20117;-73
2021/11/28 04:05:46;;;;;;;0.40;0.40;;;;;;;;;;4969004;28;20026;-73
2021/11/28 04:08:12;;;;;;;0.47;0.47;;;;;;;;;;4971066;28;20023;-73
2021/11/28 04:10:38;;;;;;;1.50;0.38;;;;;;;;;;4973668;28;20053;-73
2021/11/28 04:13:04;;;;;;;0.32;0.32;;;;;;;;;;4980268;28;20069;-73
2021/11/28 04:15:31;;;;;;;0.30;0.30;;;;;;;;;;4972566;28;20015;-72
2021/11/28 04:17:57;;;;;;;0.70;0.50;;;;;;;;;;4968589;28;20046;-73
2021/11/28 04:20:23;;;;;;;3.03;1.23;;;;;;;;;;4973760;28;20145;-73
2021/11/28 04:22:49;;;;;;;0.40;0.40;;;;;;;;;;4980417;28;20493;-73
2021/11/28 04:25:15;;;;;;;0.40;0.40;;;;;;;;;;4969357;28;20035;-73
2021/11/28 04:27:42;;;;;;;0.35;0.35;;;;;;;;;;4971345;28;20027;-73
2021/11/28 04:30:09;;;;;;;0.98;0.90;;;;;;;;;;4964101;28;20082;-73
2021/11/28 04:32:35;;;;;;;0.70;0.70;;;;;;;;;;4967670;28;20031;-73
2021/11/28 04:35:01;;;;;;;0.17;0.17;;;;;;;;;;4971045;28;20081;-73
2021/11/28 04:37:29;;;;;;;0.85;0.85;;;;;;;;;;4972886;28;20038;-73
2021/11/28 04:39:55;;;;;;;0.17;0.17;;;;;;;;;;4969905;28;20038;-72
2021/11/28 04:42:21;;;;;;;0.50;0.40;;;;;;;;;;4968580;28;20094;-73
2021/11/28 04:44:47;;;;;;;0.60;0.60;;;;;;;;;;4975511;28;22308;-73
2021/11/28 04:47:18;;;;;;;5.05;1.23;;;;;;;;;;4973063;28;20030;-73
2021/11/28 04:49:44;;;;;;;0.32;0.32;;;;;;;;;;4976818;28;20452;-73
2021/11/28 04:52:10;;;;;;;0.40;0.40;;;;;;;;;;4976890;28;20057;-73
2021/11/28 04:54:36;;;;;;;0.45;0.45;;;;;;;;;;4971781;28;20027;-72
2021/11/28 04:57:03;;;;;;;0.20;0.20;;;;;;;;;;4973819;28;20105;-73
2021/11/28 04:59:29;;;;;;;0.40;0.40;;;;;;;;;;4974983;28;20027;-73
2021/11/28 05:01:55;;;;;;;0.50;0.50;;;;;;;;;;4967200;28;20027;-72
2021/11/28 05:04:21;;;;;;;1.85;1.63;;;;;;;;;;4971457;28;20068;-73
2021/11/28 05:06:47;;;;;;;0.25;0.25;;;;;;;;;;4966121;28;20055;-73
2021/11/28 05:09:13;;;;;;;0.10;0.10;;;;;;;;;;4965164;28;20473;-72
2021/11/28 05:11:39;;;;;;;1.65;0.85;;;;;;;;;;4963130;28;20050;-72
2021/11/28 05:14:05;;;;;;;1.13;1.02;;;;;;;;;;4969717;28;20119;-73
2021/11/28 05:16:31;;;;;;;0.40;0.40;;;;;;;;;;4976067;28;20046;-73
2021/11/28 05:18:57;;;;;;;0.80;0.40;;;;;;;;;;4968733;28;20066;-72
2021/11/28 05:21:23;;;;;;;3.92;0.73;;;;;;;;;;4967287;28;20058;-72
2021/11/28 05:23:49;;;;;;;0.10;0.10;;;;;;;;;;4966339;28;20023;-73
2021/11/28 05:26:15;;;;;;;0.75;0.75;;;;;;;;;;4969023;28;20035;-72
2021/11/28 05:28:41;;;;;;;0.28;0.28;;;;;;;;;;4977645;28;20046;-73
2021/11/28 05:31:07;;;;;;;0.80;0.80;;;;;;;;;;4969846;28;20038;-73
2021/11/28 05:33:32;;;;;;;0.20;0.20;;;;;;;;;;4968504;28;20382;-73
2021/11/28 05:35:58;;;;;;;2.47;0.75;;;;;;;;;;4968144;28;20027;-73
2021/11/28 05:38:24;;;;;;;0.65;0.65;;;;;;;;;;4960955;28;20027;-73
2021/11/28 05:40:50;;;;;;;0.20;0.20;;;;;;;;;;4967189;28;20035;-72
2021/11/28 05:43:17;;;;;;;1.23;0.55;;;;;;;;;;4977393;28;20055;-73
2021/11/28 05:45:43;;;;;;;0.50;0.50;;;;;;;;;;4967750;28;20034;-73
2021/11/28 05:48:08;;;;;;;0.47;0.47;;;;;;;;;;4981046;28;20030;-73
2021/11/28 05:50:35;;;;;;;0.43;0.43;;;;;;;;;;4970953;28;20023;-72
2021/11/28 05:53:01;;;;;;;0.57;0.55;;;;;;;;;;4962626;28;20053;-73
2021/11/28 05:55:27;;;;;;;0.10;0.10;;;;;;;;;;4967291;28;20086;-73
2021/11/28 05:57:53;;;;;;;0.43;0.43;;;;;;;;;;4974195;28;20459;-73
2021/11/28 06:00:20;;;;;;;0.30;0.30;;;;;;;;;;4977925;28;20047;-73
2021/11/28 06:02:46;;;;;;;0.17;0.17;;;;;;;;;;4965091;28;20046;-73
2021/11/28 06:05:12;;;;;;;0.10;0.10;;;;;;;;;;4967583;28;20034;-73
2021/11/28 06:07:38;;;;;;;1.60;0.88;;;;;;;;;;4975313;28;20041;-73
2021/11/28 06:10:05;;;;;;;0.10;0.10;;;;;;;;;;4972912;28;20027;-73
2021/11/28 06:12:31;;;;;;;0.20;0.20;;;;;;;;;;4973800;28;20035;-73
2021/11/28 06:14:57;;;;;;;1.00;0.50;;;;;;;;;;4982866;28;20035;-72
2021/11/28 06:17:23;;;;;;;4.47;1.02;;;;;;;;;;4974815;28;20027;-73
2021/11/28 06:19:49;;;;;;;0.65;0.65;;;;;;;;;;4968425;28;20077;-73
2021/11/28 06:22:15;;;;;;;2.75;1.35;;;;;;;;;;4978939;28;20446;-73
2021/11/28 06:24:41;;;;;;;0.10;0.10;;;;;;;;;;4969900;28;20438;-73
2021/11/28 06:27:07;;;;;;;0.30;0.30;;;;;;;;;;4969968;28;20449;-73
2021/11/28 06:29:34;;;;;;;0.55;0.55;;;;;;;;;;4973335;28;20030;-73
2021/11/28 06:32:03;;;;;;;0.10;0.10;;;;;;;;;;4980251;28;20049;-73
2021/11/28 06:34:29;;;;;;;0.50;0.50;;;;;;;;;;4976034;28;20041;-73
2021/11/28 06:36:55;;;;;;;0.13;0.13;;;;;;;;;;4979828;28;20042;-73
2021/11/28 06:39:21;;;;;;;0.73;0.65;;;;;;;;;;4969896;28;20086;-73
2021/11/28 06:41:47;;;;;;;0.30;0.30;;;;;;;;;;4977153;28;20030;-73
2021/11/28 06:44:13;;;;;;;0.10;0.10;;;;;;;;;;4969648;28;20023;-73
2021/11/28 06:46:39;;;;;;;2.08;0.82;;;;;;;;;;4972718;28;20130;-72
2021/11/28 06:49:05;;;;;;;0.32;0.30;;;;;;;;;;4968560;28;20114;-72
2021/11/28 06:51:31;;;;;;;1.63;0.82;;;;;;;;;;4969379;28;20034;-72
2021/11/28 06:53:57;;;;;;;0.40;0.40;;;;;;;;;;4964346;28;20117;-72
2021/11/28 06:56:23;;;;;;;0.10;0.10;;;;;;;;;;4971266;28;20600;-71
2021/11/28 06:58:49;;;;;;;0.55;0.38;;;;;;;;;;4983320;28;20101;-72
2021/11/28 07:01:15;;;;;;;0.08;0.08;;;;;;;;;;4972884;28;20026;-72
2021/11/28 07:03:41;;;;;;;1.65;1.30;;;;;;;;;;4975245;28;20389;-72
2021/11/28 07:06:07;;;;;;;0.85;0.47;;;;;;;;;;4972438;28;20142;-72
2021/11/28 07:08:33;;;;;;;0.63;0.63;;;;;;;;;;4966595;28;20105;-72
2021/11/28 07:10:59;;;;;;;4.10;1.10;;;;;;;;;;4972491;28;20046;-72
2021/11/28 07:13:25;;;;;;;0.63;0.60;;;;;;;;;;4975539;28;20081;-72
2021/11/28 07:15:51;;;;;;;0.22;0.22;;;;;;;;;;4973312;28;20030;-72
2021/11/28 07:18:18;;;;;;;0.70;0.70;;;;;;;;;;4970627;28;20035;-72
2021/11/28 07:20:44;;;;;;;0.30;0.30;;;;;;;;;;4972603;28;20118;-72
2021/11/28 07:23:10;;;;;;;0.22;0.22;;;;;;;;;;4969772;28;20118;-72
2021/11/28 07:25:36;;;;;;;0.68;0.38;;;;;;;;;;4971783;28;20026;-73
2021/11/28 07:28:02;;;;;;;0.47;0.47;;;;;;;;;;4972520;28;20031;-72
2021/11/28 07:30:29;;;;;;;0.20;0.20;;;;;;;;;;4975709;28;20037;-72
2021/11/28 07:32:55;;;;;;;0.20;0.20;;;;;;;;;;4985745;28;20547;-74
2021/11/28 07:35:23;;;;;;;0.75;0.75;;;;;;;;;;4977389;28;20022;-75
2021/11/28 07:37:49;;;;;;;0.52;0.52;;;;;;;;;;4974195;28;20038;-74
2021/11/28 07:40:15;;;;;;;3.08;0.90;;;;;;;;;;4972321;28;20030;-75
2021/11/28 07:42:41;;;;;;;0.43;0.43;;;;;;;;;;4975233;28;20170;-74
2021/11/28 07:45:08;;;;;;;1.35;1.23;;;;;;;;;;4985056;28;20129;-75
2021/11/28 07:47:35;;;;;;;0.70;0.70;;;;;;;;;;4982764;28;20485;-74
2021/11/28 07:50:01;;;;;;;0.35;0.35;;;;;;;;;;4972810;28;20051;-74
2021/11/28 07:52:27;;;;;;;0.30;0.30;;;;;;;;;;4976165;28;20038;-74
2021/11/28 07:54:53;;;;;;;0.50;0.50;;;;;;;;;;4974585;28;20022;-75
2021/11/28 07:57:19;;;;;;;0.25;0.25;;;;;;;;;;4969953;28;20163;-75
2021/11/28 07:59:45;;;;;;;0.70;0.70;;;;;;;;;;4968255;28;20690;-75
2021/11/28 08:02:18;;;;;;;1.45;0.60;;;;;;;;;;4967440;28;20120;-75
2021/11/28 08:04:44;;;;;;;0.20;0.20;;;;;;;;;;4966731;28;20031;-75
2021/11/28 08:07:10;;;;;;;1.25;0.75;;;;;;;;;;4965263;28;20056;-75
2021/11/28 08:09:35;;;;;;;1.75;0.85;;;;;;;;;;4965954;28;20022;-75
2021/11/28 08:12:01;;;;;;;0.10;0.10;;;;;;;;;;4967675;28;20047;-76
2021/11/28 08:14:27;;;;;;;0.25;0.25;;;;;;;;;;4967685;28;20030;-74
2021/11/28 08:16:53;;;;;;;0.10;0.10;;;;;;;;;;4967904;28;20081;-74
2021/11/28 08:19:19;;;;;;;0.57;0.57;;;;;;;;;;4968660;28;20030;-74
2021/11/28 08:21:45;;;;;;;0.13;0.13;;;;;;;;;;4969166;28;20038;-74
2021/11/28 08:24:11;;;;;;;0.98;0.93;;;;;;;;;;4966363;28;20035;-74
2021/11/28 08:26:37;;;;;;;0.20;0.20;;;;;;;;;;4963732;28;20038;-73
2021/11/28 08:29:04;;;;;;;0.68;0.68;;;;;;;;;;4968800;28;20034;-73
2021/11/28 08:31:30;;;;;;;0.20;0.20;;;;;;;;;;4968937;28;20042;-73
2021/11/28 08:33:56;;;;;;;0.32;0.32;;;;;;;;;;4967079;28;20397;-73
2021/11/28 08:36:22;;;;;;;0.40;0.40;;;;;;;;;;4968680;28;20034;-73
2021/11/28 08:38:49;;;;;;;0.10;0.10;;;;;;;;;;4969235;28;20027;-73
2021/11/28 08:41:15;;;;;;;0.13;0.13;;;;;;;;;;4968212;28;20526;-74
2021/11/28 08:43:42;;;;;;;0.85;0.85;;;;;;;;;;4968296;28;20026;-73
2021/11/28 08:46:08;;;;;;;0.50;0.50;;;;;;;;;;4967865;28;20035;-73
2021/11/28 08:48:34;;;;;;;0.50;0.50;;;;;;;;;;4967856;28;20027;-74
2021/11/28 08:51:00;;;;;;;4.90;2.30;;;;;;;;;;4967761;28;20027;-73
2021/11/28 08:53:27;;;;;;;6.55;1.48;;;;;;;;;;4967043;28;20069;-73
2021/11/28 08:55:53;;;;;;;0.00;0.00;;;;;;;;;;4967990;28;20030;-74
2021/11/28 08:58:19;;;;;;;1.35;0.80;;;;;;;;;;4967074;28;20014;-74
2021/11/28 09:00:45;;;;;;;0.30;0.30;;;;;;;;;;4967484;28;20363;-73
2021/11/28 09:03:11;;;;;;;0.88;0.88;;;;;;;;;;4966204;28;20039;-74
2021/11/28 09:05:37;;;;;;;0.13;0.13;;;;;;;;;;4967272;28;20023;-73
2021/11/28 09:08:03;;;;;;;0.10;0.10;;;;;;;;;;4967890;28;20023;-74
2021/11/28 09:10:30;;;;;;;0.55;0.55;;;;;;;;;;4966076;28;20031;-73
2021/11/28 09:12:56;;;;;;;0.10;0.10;;;;;;;;;;4968594;28;20026;-74
2021/11/28 09:15:25;;;;;;;2.92;1.60;;;;;;;;;;4966749;28;20465;-74
2021/11/28 09:17:55;;;;;;;0.57;0.57;;;;;;;;;;4967891;28;20030;-73
2021/11/28 09:20:24;;;;;;;0.43;0.43;;;;;;;;;;4967185;28;20473;-73
2021/11/28 09:25:17;;;;;;;0.52;0.52;;;;;;;;;;4967948;28;20035;-72
2021/11/28 09:27:47;;;;;;;1.25;0.88;;;;;;;;;;4965528;28;20038;-73
2021/11/28 09:30:14;;;;;;;0.40;0.40;;;;;;;;;;4969762;28;20038;-73
2021/11/28 09:32:40;;;;;;;0.35;0.35;;;;;;;;;;4954608;28;20130;-74
2021/11/28 09:35:06;;;;;;;0.13;0.13;;;;;;;;;;4965593;28;20145;-74
2021/11/28 09:37:33;;;;;;;0.10;0.10;;;;;;;;;;4968458;28;20102;-75
2021/11/28 09:39:59;;;;;;;11.95;3.17;;;;;;;;;;4970071;28;20514;-74
2021/11/28 09:42:33;;;;;;;0.10;0.10;;;;;;;;;;4971634;28;20031;-73
2021/11/28 09:45:00;;;;;;;0.00;0.00;;;;;;;;;;4969364;28;20039;-74
2021/11/28 09:47:27;;;;;;;0.15;0.15;;;;;;;;;;4969515;28;20545;-71
2021/11/28 09:49:55;;;;;;;0.50;0.50;;;;;;;;;;4974464;28;20510;-72
2021/11/28 09:52:23;;;;;;;1.27;1.13;;;;;;;;;;4987290;28;20060;-74
2021/11/28 09:54:52;;;;;;;1.45;0.63;;;;;;;;;;4982536;28;20027;-77
2021/11/28 09:57:20;;;;;;;0.15;0.15;;;;;;;;;;4976177;28;20038;-74
2021/11/28 09:59:47;;;;;;;0.55;0.55;;;;;;;;;;4975118;28;20099;-74
2021/11/28 10:02:22;;;;;;;1.38;1.27;;;;;;;;;;4979161;28;20097;-74
2021/11/28 10:04:48;;;;;;;0.82;0.80;;;;;;;;;;4986721;28;20121;-75
2021/11/28 10:07:15;;;;;;;1.02;0.68;;;;;;;;;;4976157;28;20119;-73
2021/11/28 10:09:41;;;;;;;9.07;2.28;;;;;;;;;;4976239;28;20026;-74
2021/11/28 10:12:14;;;;;;;0.10;0.10;;;;;;;;;;4979879;28;20042;-74
2021/11/28 10:14:42;;;;;;;0.47;0.47;;;;;;;;;;4975384;28;20161;-72
2021/11/28 10:17:08;;;;;;;0.45;0.45;;;;;;;;;;4980145;28;20045;-74
2021/11/28 10:19:36;;;;;;;0.10;0.10;;;;;;;;;;4964323;28;20381;-73
2021/11/28 10:22:02;;;;;;;0.40;0.40;;;;;;;;;;4981141;28;20035;-73
2021/11/28 10:24:28;;;;;;;0.57;0.57;;;;;;;;;;4972504;28;20042;-74
2021/11/28 10:26:59;;;;;;;0.10;0.10;;;;;;;;;;4975612;28;20393;-73
2021/11/28 10:29:25;;;;;;;;;;;;;;;;;;4971556;28;20031;-74
2021/11/28 10:31:53;;;;;;;0.63;0.60;;;;;;;;;;4972385;28;20284;-73
2021/11/28 10:34:31;;;;;;;0.40;0.40;;;;;;;;;;4972595;28;20375;-73
2021/11/28 10:37:03;;;;;;;0.30;0.30;;;;;;;;;;4976277;28;20506;-73
2021/11/28 10:39:29;;;;;;;0.13;0.13;;;;;;;;;;4975179;28;20034;-72
2021/11/28 10:41:56;;;;;;;0.77;0.52;;;;;;;;;;4972883;28;20034;-74
2021/11/28 10:44:26;;;;;;;0.43;0.43;;;;;;;;;;4972816;28;20034;-74
2021/11/28 10:46:57;;;;;;;3.65;0.85;;;;;;;;;;4976396;28;20113;-73
2021/11/28 10:49:26;;;;;;;0.60;0.60;;;;;;;;;;4972503;28;20050;-73
2021/11/28 10:51:57;;;;;;;4.95;1.17;;;;;;;;;;4972490;28;20037;-73
2021/11/28 10:54:31;;;;;;;0.30;0.30;;;;;;;;;;4971288;28;20394;-74
2021/11/28 10:57:06;;;;;;;0.63;0.63;;;;;;;;;;4969980;28;20031;-73
2021/11/28 10:59:32;;;;;;;0.03;0.03;;;;;;;;;;4975560;28;20023;-74
2021/11/28 11:01:58;;;;;;;0.10;0.10;;;;;;;;;;4984505;28;20604;-73
2021/11/28 11:04:24;;;;;;;0.40;0.40;;;;;;;;;;4976556;28;20117;-79
2021/11/28 11:07:11;;;;;;;0.17;0.17;;;;;;;;;;4969068;28;20465;-70
2021/11/28 11:09:41;;;;;;;0.10;0.10;;;;;;;;;;4973399;28;20145;-72
2021/11/28 11:12:35;;;;;;;0.20;0.20;;;;;;;;;;4970013;28;20034;-74
2021/11/28 11:15:01;;;;;;;0.52;0.52;;;;;;;;;;4968993;28;20035;-74
2021/11/28 11:17:28;;;;;;;0.20;0.20;;;;;;;;;;4968360;28;20035;-74
2021/11/28 11:19:55;;;;;;;0.70;0.60;;;;;;;;;;4968973;28;20027;-73
2021/11/28 11:22:25;;;;;;;1.45;0.90;;;;;;;;;;4971410;28;20385;-74
2021/11/28 11:24:58;;;;;;;0.10;0.10;;;;;;;;;;4969914;28;20045;-72
2021/11/28 11:27:33;;;;;;;0.52;0.52;;;;;;;;;;4971147;28;20489;-83
2021/11/28 11:30:05;;;;;;;0.77;0.77;;;;;;;;;;4974755;28;20057;-73
2021/11/28 11:32:30;;;;;;;;;;;;;;;;;;4973286;28;20019;-74
2021/11/28 11:35:00;;;;;;;0.45;0.45;;;;;;;;;;4970674;28;19984;-74
2021/11/28 11:37:29;;;;;;;0.65;0.65;;;;;;;;;;4980955;28;20041;-74
2021/11/28 11:39:57;;;;;;;0.45;0.45;;;;;;;;;;4986225;28;20077;-74
2021/11/28 11:42:24;;;;;;;1.98;0.55;;;;;;;;;;4973811;28;20038;-73
2021/11/28 11:44:50;;;;;;;0.65;0.25;;;;;;;;;;4981338;28;20478;-74
2021/11/28 11:47:17;;;;;;;0.85;0.55;;;;;;;;;;4987202;28;20037;-74
2021/11/28 11:49:43;;;;;;;0.20;0.20;;;;;;;;;;4973421;28;20125;-74
2021/11/28 11:52:10;;;;;;;0.77;0.75;;;;;;;;;;4972637;28;20117;-73
2021/11/28 11:54:45;;;;;;;4.38;0.75;;;;;;;;;;4974774;28;20106;-74
2021/11/28 11:57:17;;;;;;;0.20;0.20;;;;;;;;;;4980712;28;20038;-73
2021/11/28 11:59:51;;;;;;;0.03;0.03;;;;;;;;;;4970224;28;20093;-74
2021/11/28 12:02:30;;;;;;;0.52;0.52;;;;;;;;;;4970512;28;20512;-74
2021/11/28 12:04:56;;;;;;;0.30;0.30;;;;;;;;;;4970437;28;20022;-74
2021/11/28 12:07:42;;;;;;;0.45;0.45;;;;;;;;;;4969103;28;20037;-75
2021/11/28 12:10:27;;;;;;;0.13;0.13;;;;;;;;;;4966745;28;20039;-74
2021/11/28 12:12:53;;;;;;;1.45;0.30;;;;;;;;;;4970505;28;20049;-74
2021/11/28 12:15:21;;;;;;;0.03;0.03;;;;;;;;;;4972561;28;20031;-73
2021/11/28 12:17:47;;;;;;;0.98;0.90;;;;;;;;;;4972711;28;20039;-74
2021/11/28 12:20:16;;;;;;;0.85;0.63;;;;;;;;;;4984163;28;20026;-74
2021/11/28 12:22:52;;;;;;;0.10;0.10;;;;;;;;;;5066620;28;20411;-73
2021/11/28 12:25:37;;;;;;;1.15;0.60;;;;;;;;;;5066385;28;20032;-71
2021/11/28 12:28:20;;;;;;;0.10;0.10;;;;;;;;;;5054639;28;20138;-76
2021/11/28 12:33:54;;;;;;;0.25;0.25;;;;;;;;;;5049792;28;20541;-75
2021/11/28 12:36:42;;;;;;;0.93;0.30;;;;;;;;;;5065385;28;20053;-75
2021/11/28 12:39:17;;;;;;;0.35;0.17;;;;;;;;;;5066014;28;20029;-73
2021/11/28 12:41:51;;;;;;;0.10;0.10;;;;;;;;;;5064840;28;20596;-73
2021/11/28 12:44:17;;;;;;;3.05;0.45;;;;;;;;;;5066786;28;20085;-74
2021/11/28 12:46:46;;;;;;;0.52;0.50;;;;;;;;;;5063821;28;20029;-72
2021/11/28 12:49:32;;;;;;;0.08;0.08;;;;;;;;;;5065905;28;20021;-73
2021/11/28 12:52:17;;;;;;;1.17;0.55;;;;;;;;;;5065160;28;20035;-72
2021/11/28 12:55:03;;;;;;;1.13;0.98;;;;;;;;;;5065792;28;20032;-72
2021/11/28 12:57:30;;;;;;;0.10;0.10;;;;;;;;;;5065364;28;20096;-73
2021/11/28 13:00:19;;;;;;;0.13;0.13;;;;;;;;;;5065868;28;20407;-73
2021/11/28 13:02:58;;;;;;;2.15;0.85;;;;;;;;;;5065456;28;20123;-73
2021/11/28 13:05:36;;;;;;;0.10;0.10;;;;;;;;;;5065730;28;20028;-73
2021/11/28 13:08:02;;;;;;;0.40;0.40;;;;;;;;;;5065078;28;20029;-72
2021/11/28 13:10:28;;;;;;;0.10;0.10;;;;;;;;;;5065546;28;20043;-72
2021/11/28 13:12:55;;;;;;;0.10;0.10;;;;;;;;;;5057518;28;20053;-73
2021/11/28 13:15:23;;;;;;;3.75;2.45;;;;;;;;;;5051992;28;20020;-72
2021/11/28 13:17:49;;;;;;;1.10;0.82;;;;;;;;;;5057704;28;20074;-73
2021/11/28 13:20:15;;;;;;;1.08;0.55;;;;;;;;;;5057002;28;20021;-73
2021/11/28 13:22:42;;;;;;;0.35;0.35;;;;;;;;;;5045471;28;20517;-72
2021/11/28 13:25:24;;;;;;;2.05;0.95;;;;;;;;;;5045301;28;20029;-72
2021/11/28 13:27:49;;;;;;;2.08;0.70;;;;;;;;;;5059640;28;20029;-73
2021/11/28 13:30:19;;;;;;;0.10;0.10;;;;;;;;;;5064858;28;20078;-73
2021/11/28 13:32:46;;;;;;;0.20;0.20;;;;;;;;;;5049078;28;20037;-72
2021/11/28 13:35:13;;;;;;;0.55;0.55;;;;;;;;;;5031976;28;20044;-72
2021/11/28 13:37:39;;;;;;;1.30;1.27;;;;;;;;;;5031915;28;20068;-72
2021/11/28 13:40:11;;;;;;;0.63;0.43;;;;;;;;;;5031955;28;20049;-73
2021/11/28 13:42:43;;;;;;;1.75;0.55;;;;;;;;;;5038558;28;20029;-73
2021/11/28 13:45:13;;;;;;;1.10;1.02;;;;;;;;;;5049918;28;20031;-72
2021/11/28 13:47:39;;;;;;;0.45;0.45;;;;;;;;;;5056333;28;20094;-72
2021/11/28 13:50:09;;;;;;;0.38;0.38;;;;;;;;;;5037215;28;20021;-72
2021/11/28 13:52:35;;;;;;;1.63;1.52;;;;;;;;;;5050191;28;20048;-73
2021/11/28 13:55:01;;;;;;;1.35;1.25;;;;;;;;;;5039626;28;20415;-73
2021/11/28 13:57:28;;;;;;;0.10;0.10;;;;;;;;;;5034903;28;20021;-73
2021/11/28 13:59:54;;;;;;;0.20;0.20;;;;;;;;;;5031830;28;20120;-72
2021/11/28 14:02:23;;;;;;;0.70;0.70;;;;;;;;;;5036425;28;20148;-74
2021/11/28 14:04:52;;;;;;;1.17;0.65;;;;;;;;;;5042716;28;20025;-73
2021/11/28 14:07:21;;;;;;;17.63;0.80;;;;;;;;;;5042432;28;20048;-73
2021/11/28 14:09:48;;;;;;;4.85;1.48;;;;;;;;;;5031476;28;20021;-73
2021/11/28 14:12:25;;;;;;;0.10;0.10;;;;;;;;;;5036584;28;20521;-74
2021/11/28 14:14:56;;;;;;;0.35;0.35;;;;;;;;;;5041817;28;20143;-74
2021/11/28 14:17:22;;;;;;;2.30;1.15;;;;;;;;;;5037019;28;20030;-74
2021/11/28 14:19:48;;;;;;;0.82;0.82;;;;;;;;;;5035014;28;20095;-71
2021/11/28 14:22:27;;;;;;;1.63;1.52;;;;;;;;;;5041026;28;20060;-73
2021/11/28 14:24:54;;;;;;;0.30;0.30;;;;;;;;;;5044253;28;20023;-74
2021/11/28 14:27:22;;;;;;;4.43;1.60;;;;;;;;;;5047992;28;20155;-74
2021/11/28 14:30:01;;;;;;;0.85;0.85;;;;;;;;;;5034159;28;20030;-73
2021/11/28 14:32:27;;;;;;;2.65;2.40;;;;;;;;;;5030213;28;20034;-74
2021/11/28 14:35:12;;;;;;;0.50;0.50;;;;;;;;;;5042977;28;20063;-73
2021/11/28 14:37:38;;;;;;;0.30;0.30;;;;;;;;;;5039786;28;20046;-73
2021/11/28 14:40:05;;;;;;;0.55;0.55;;;;;;;;;;5045591;28;20132;-74
2021/11/28 14:42:36;;;;;;;4.68;2.20;;;;;;;;;;5048246;28;20036;-71
2021/11/28 14:45:03;;;;;;;2.30;1.65;;;;;;;;;;5040623;28;20021;-73
2021/11/28 14:47:29;;;;;;;1.77;1.67;;;;;;;;;;5035504;28;20036;-73
2021/11/28 14:49:59;;;;;;;1.75;1.38;;;;;;;;;;5038365;28;20037;-72
2021/11/28 14:52:29;;;;;;;1.35;1.25;;;;;;;;;;5035396;28;20032;-73
2021/11/28 14:54:55;;;;;;;2.88;1.48;;;;;;;;;;5034690;28;20025;-75
2021/11/28 14:57:23;;;;;;;0.98;0.85;;;;;;;;;;5037922;28;20503;-74
2021/11/28 14:59:50;;;;;;;2.28;1.23;;;;;;;;;;5046781;28;20035;-74